createdAt,value
2023-05-17T00:00:55.426Z,2.63
2023-05-17T00:03:22.070Z,2.60
2023-05-17T00:05:48.736Z,2.60
2023-05-17T00:08:15.524Z,3.17
2023-05-17T00:10:43.538Z,3.00
2023-05-17T00:13:10.723Z,2.85
2023-05-17T00:15:37.384Z,2.55
2023-05-17T00:18:04.200Z,2.22
2023-05-17T00:20:31.178Z,2.50
2023-05-17T00:22:58.080Z,2.40
2023-05-17T00:25:24.734Z,2.60
2023-05-17T00:27:51.578Z,2.35
2023-05-17T00:30:18.242Z,2.13
2023-05-17T00:32:46.819Z,2.67
2023-05-17T00:35:14.285Z,2.40
2023-05-17T00:37:41.008Z,2.15
2023-05-17T00:40:08.470Z,2.65
2023-05-17T00:42:35.224Z,2.72
2023-05-17T00:45:01.949Z,2.80
2023-05-17T00:47:28.776Z,2.45
2023-05-17T00:49:55.817Z,2.53
2023-05-17T00:52:22.529Z,2.50
2023-05-17T00:54:51.349Z,2.72
2023-05-17T00:57:18.302Z,2.60
2023-05-17T00:59:45.364Z,3.03
2023-05-17T01:02:12.638Z,2.60
2023-05-17T01:04:41.562Z,2.70
2023-05-17T01:07:09.980Z,2.58
2023-05-17T01:09:38.529Z,2.70
2023-05-17T01:12:08.672Z,2.60
2023-05-17T01:17:28.183Z,3.10
2023-05-17T01:20:18.756Z,2.55
2023-05-17T01:22:49.433Z,3.47
2023-05-17T01:25:38.263Z,2.97
2023-05-17T01:28:07.475Z,3.00
2023-05-17T01:30:35.421Z,2.92
2023-05-17T01:33:03.007Z,3.03
2023-05-17T01:35:30.457Z,3.53
2023-05-17T01:37:57.797Z,2.63
2023-05-17T01:40:25.225Z,3.42
2023-05-17T01:42:57.928Z,2.90
2023-05-17T01:45:30.192Z,3.00
2023-05-17T01:48:09.813Z,2.90
2023-05-17T01:50:38.873Z,3.38
2023-05-17T01:53:11.758Z,3.03
2023-05-17T01:56:07.712Z,2.80
2023-05-17T01:58:43.463Z,3.38
2023-05-17T02:01:11.581Z,2.83
2023-05-17T02:03:38.944Z,2.80
2023-05-17T02:06:05.989Z,3.10
2023-05-17T02:08:33.126Z,3.30
2023-05-17T02:11:00.478Z,3.20
2023-05-17T02:13:28.334Z,3.40
2023-05-17T02:15:56.160Z,3.30
2023-05-17T02:18:23.375Z,3.35
2023-05-17T02:20:51.819Z,3.17
2023-05-17T02:23:19.279Z,3.38
2023-05-17T02:25:46.881Z,3.60
2023-05-17T02:28:16.897Z,3.13
2023-05-17T02:30:44.503Z,3.60
2023-05-17T02:33:11.561Z,3.33
2023-05-17T02:35:39.045Z,3.80
2023-05-17T02:38:06.259Z,3.45
2023-05-17T02:40:33.377Z,3.63
2023-05-17T02:43:03.159Z,3.90
2023-05-17T02:45:30.763Z,3.78
2023-05-17T02:47:58.006Z,4.03
2023-05-17T02:50:25.192Z,4.55
2023-05-17T02:52:52.913Z,4.05
2023-05-17T02:55:19.870Z,4.35
2023-05-17T02:57:47.058Z,4.65
2023-05-17T03:00:15.388Z,4.47
2023-05-17T03:02:42.572Z,4.82
2023-05-17T03:05:10.182Z,4.40
2023-05-17T03:07:40.467Z,5.13
2023-05-17T03:10:08.189Z,4.88
2023-05-17T03:12:40.502Z,4.15
2023-05-17T03:15:08.481Z,4.78
2023-05-17T03:17:36.889Z,4.70
2023-05-17T03:20:08.117Z,4.73
2023-05-17T03:22:36.524Z,4.38
2023-05-17T03:25:05.360Z,5.00
2023-05-17T03:27:33.889Z,5.13
2023-05-17T03:30:01.844Z,5.00
2023-05-17T03:32:30.073Z,4.60
2023-05-17T03:34:57.481Z,4.72
2023-05-17T03:37:28.975Z,5.30
2023-05-17T03:39:56.279Z,4.85
2023-05-17T03:42:23.580Z,4.90
2023-05-17T03:44:52.791Z,5.53
2023-05-17T03:47:23.924Z,4.93
2023-05-17T03:49:51.763Z,5.50
2023-05-17T03:52:19.036Z,5.32
2023-05-17T03:54:48.232Z,5.20
2023-05-17T03:57:16.848Z,4.72
2023-05-17T03:59:45.154Z,4.85
2023-05-17T04:02:12.420Z,5.53
2023-05-17T04:04:39.430Z,5.78
2023-05-17T04:07:06.683Z,5.65
2023-05-17T04:09:35.224Z,5.13
2023-05-17T04:12:02.878Z,5.25
2023-05-17T04:14:30.088Z,5.18
2023-05-17T04:16:58.127Z,4.88
2023-05-17T04:19:25.478Z,4.93
2023-05-17T04:21:53.260Z,5.28
2023-05-17T04:24:23.154Z,4.80
2023-05-17T04:26:50.321Z,5.45
2023-05-17T04:29:21.967Z,5.43
2023-05-17T04:31:50.795Z,5.18
2023-05-17T04:34:18.235Z,5.50
2023-05-17T04:36:46.460Z,5.38
2023-05-17T04:39:13.479Z,4.90
2023-05-17T04:41:40.888Z,5.40
2023-05-17T04:44:11.508Z,5.60
2023-05-17T04:46:38.870Z,4.75
2023-05-17T04:49:07.560Z,4.50
2023-05-17T04:51:34.744Z,4.95
2023-05-17T04:54:03.327Z,4.88
2023-05-17T04:56:31.596Z,4.47
2023-05-17T04:58:59.382Z,4.72
2023-05-17T05:01:26.856Z,5.00
2023-05-17T05:03:54.301Z,4.55
2023-05-17T05:06:22.289Z,5.13
2023-05-17T05:08:49.668Z,5.28
2023-05-17T05:11:16.817Z,5.20
2023-05-17T05:13:44.023Z,5.45
2023-05-17T05:16:10.792Z,5.88
2023-05-17T05:18:39.490Z,5.70
2023-05-17T05:21:07.123Z,4.82
2023-05-17T05:23:34.678Z,5.28
2023-05-17T05:26:03.219Z,5.38
2023-05-17T05:28:30.366Z,4.95
2023-05-17T05:31:01.333Z,4.93
2023-05-17T05:33:35.545Z,4.97
2023-05-17T05:36:03.435Z,4.55
2023-05-17T05:38:31.195Z,4.82
2023-05-17T05:40:59.125Z,5.10
2023-05-17T05:43:26.170Z,4.80
2023-05-17T05:45:53.866Z,4.72
2023-05-17T05:48:22.585Z,4.57
2023-05-17T05:50:50.162Z,3.85
2023-05-17T05:53:19.721Z,4.15
2023-05-17T05:55:55.588Z,4.30
2023-05-17T05:58:22.666Z,4.35
2023-05-17T06:00:51.378Z,4.03
2023-05-17T06:03:20.132Z,4.68
2023-05-17T06:05:47.453Z,4.30
2023-05-17T06:08:15.309Z,4.63
2023-05-17T06:10:42.478Z,4.20
2023-05-17T06:13:09.418Z,5.05
2023-05-17T06:15:36.632Z,4.20
2023-05-17T06:18:04.144Z,4.55
2023-05-17T06:20:31.964Z,4.80
2023-05-17T06:23:01.220Z,3.83
2023-05-17T06:25:28.117Z,4.60
2023-05-17T06:27:55.118Z,3.97
2023-05-17T06:30:22.662Z,4.32
2023-05-17T06:32:50.263Z,3.95
2023-05-17T06:35:17.730Z,4.93
2023-05-17T06:37:44.936Z,4.45
2023-05-17T06:40:32.034Z,4.78
2023-05-17T06:42:59.752Z,4.30
2023-05-17T06:45:27.635Z,5.60
2023-05-17T06:47:55.560Z,4.50
2023-05-17T06:50:22.917Z,5.50
2023-05-17T06:52:50.271Z,5.13
2023-05-17T06:55:17.955Z,5.25
2023-05-17T06:57:45.657Z,5.38
2023-05-17T07:00:13.617Z,5.13
2023-05-17T07:02:40.563Z,5.25
2023-05-17T07:05:08.418Z,5.20
2023-05-17T07:07:35.726Z,5.40
2023-05-17T07:10:02.866Z,5.47
2023-05-17T07:12:30.040Z,5.45
2023-05-17T07:14:57.145Z,4.63
2023-05-17T07:17:27.869Z,4.95
2023-05-17T07:22:23.135Z,5.00
2023-05-17T07:24:51.149Z,4.25
2023-05-17T07:27:18.329Z,4.85
2023-05-17T07:29:45.725Z,5.70
2023-05-17T07:32:13.204Z,5.10
2023-05-17T07:34:40.458Z,6.05
2023-05-17T07:37:07.807Z,5.30
2023-05-17T07:39:35.277Z,4.90
2023-05-17T07:42:05.177Z,5.25
2023-05-17T07:44:32.536Z,4.90
2023-05-17T07:46:59.972Z,4.68
2023-05-17T07:49:30.220Z,4.30
2023-05-17T07:51:58.129Z,4.25
2023-05-17T07:54:27.432Z,4.30
2023-05-17T07:56:55.582Z,4.22
2023-05-17T07:59:23.710Z,4.32
2023-05-17T08:01:51.557Z,4.05
2023-05-17T08:04:19.530Z,3.80
2023-05-17T08:06:48.515Z,3.80
2023-05-17T08:09:17.139Z,3.70
2023-05-17T08:11:47.957Z,4.03
2023-05-17T08:14:16.056Z,3.60
2023-05-17T08:16:44.148Z,3.08
2023-05-17T08:19:16.906Z,3.35
2023-05-17T08:21:46.310Z,3.33
2023-05-17T08:24:13.761Z,3.10
2023-05-17T08:26:41.405Z,3.50
2023-05-17T08:29:08.463Z,2.88
2023-05-17T08:31:35.317Z,4.20
2023-05-17T08:34:03.596Z,3.28
2023-05-17T08:36:31.385Z,3.30
2023-05-17T08:38:58.458Z,3.50
2023-05-17T08:41:26.663Z,3.40
2023-05-17T08:43:54.823Z,3.83
2023-05-17T08:46:23.825Z,4.25
2023-05-17T08:48:53.047Z,3.42
2023-05-17T08:51:21.029Z,3.67
2023-05-17T08:53:50.880Z,3.65
2023-05-17T08:56:20.971Z,3.80
2023-05-17T08:58:56.374Z,3.78
2023-05-17T09:01:26.529Z,3.90
2023-05-17T09:03:54.787Z,4.20
2023-05-17T09:06:23.682Z,3.38
2023-05-17T09:08:53.048Z,4.20
2023-05-17T09:11:30.278Z,3.78
2023-05-17T09:14:05.137Z,3.20
2023-05-17T09:16:35.229Z,3.83
2023-05-17T09:21:32.423Z,3.97
2023-05-17T09:26:42.005Z,4.25
2023-05-17T09:29:15.258Z,3.85
2023-05-17T09:31:43.258Z,4.30
2023-05-17T09:34:11.194Z,4.20
2023-05-17T09:36:42.670Z,3.83
2023-05-17T09:39:13.600Z,3.92
2023-05-17T09:41:45.130Z,3.78
2023-05-17T09:44:15.193Z,4.28
2023-05-17T09:46:47.971Z,4.07
2023-05-17T09:49:16.622Z,4.35
2023-05-17T09:51:47.238Z,4.57
2023-05-17T09:54:15.022Z,3.97
2023-05-17T09:56:42.426Z,3.95
2023-05-17T09:59:14.454Z,4.25
2023-05-17T10:01:42.936Z,4.25
2023-05-17T10:04:11.519Z,3.92
2023-05-17T10:09:17.426Z,3.90
2023-05-17T10:11:46.996Z,3.70
2023-05-17T10:14:23.624Z,3.60
2023-05-17T10:16:52.023Z,3.80
2023-05-17T10:19:21.088Z,3.92
2023-05-17T10:21:51.249Z,4.38
2023-05-17T10:24:20.985Z,3.95
2023-05-17T10:26:52.120Z,4.85
2023-05-17T10:29:21.423Z,4.38
2023-05-17T10:31:51.463Z,4.22
2023-05-17T10:36:47.188Z,4.85
2023-05-17T10:39:14.739Z,5.55
2023-05-17T10:41:47.065Z,4.88
2023-05-17T10:44:15.849Z,5.30
2023-05-17T10:46:56.833Z,5.20
2023-05-17T10:49:30.262Z,5.70
2023-05-17T10:51:59.236Z,6.10
2023-05-17T10:54:36.272Z,7.22
2023-05-17T10:57:08.477Z,6.90
2023-05-17T10:59:36.409Z,5.90
2023-05-17T11:02:06.294Z,6.55
2023-05-17T11:04:36.916Z,7.10
2023-05-17T11:09:53.644Z,5.97
2023-05-17T11:12:33.605Z,6.75
2023-05-17T11:15:06.253Z,6.72
2023-05-17T11:17:54.878Z,6.88
2023-05-17T11:20:28.465Z,7.35
2023-05-17T11:22:56.279Z,7.32
2023-05-17T11:25:23.888Z,7.28
2023-05-17T11:27:52.659Z,6.65
2023-05-17T11:30:31.902Z,8.00
2023-05-17T11:33:13.438Z,7.37
2023-05-17T11:35:44.765Z,7.38
2023-05-17T11:38:17.170Z,7.22
2023-05-17T11:40:45.449Z,7.60
2023-05-17T11:43:13.440Z,6.63
2023-05-17T11:45:53.531Z,6.00
2023-05-17T11:48:22.742Z,6.15
2023-05-17T11:50:52.693Z,5.85
2023-05-17T11:53:20.048Z,6.20
2023-05-17T11:55:49.153Z,6.50
2023-05-17T11:58:21.150Z,6.10
2023-05-17T12:00:53.821Z,5.97
2023-05-17T12:03:29.171Z,5.60
2023-05-17T12:06:06.274Z,5.95
2023-05-17T12:08:34.907Z,4.78
2023-05-17T12:11:02.632Z,4.75
2023-05-17T12:13:31.193Z,5.72
2023-05-17T12:16:02.292Z,4.97
2023-05-17T12:18:39.675Z,5.85
2023-05-17T12:21:08.792Z,5.40
2023-05-17T12:23:36.790Z,3.90
2023-05-17T12:26:07.191Z,4.72
2023-05-17T12:28:37.071Z,4.65
2023-05-17T12:31:08.027Z,5.00
2023-05-17T12:33:41.408Z,5.13
2023-05-17T12:36:11.411Z,5.03
2023-05-17T12:38:43.394Z,4.50
2023-05-17T12:41:16.079Z,4.50
2023-05-17T12:43:45.500Z,4.45
2023-05-17T12:46:15.186Z,4.32
2023-05-17T12:48:43.923Z,4.35
2023-05-17T12:51:14.811Z,3.63
2023-05-17T12:53:44.096Z,3.88
2023-05-17T12:56:19.315Z,4.20
2023-05-17T12:59:07.829Z,4.10
2023-05-17T13:01:52.012Z,4.53
2023-05-17T13:04:20.663Z,4.15
2023-05-17T13:06:55.532Z,4.10
2023-05-17T13:09:24.242Z,4.75
2023-05-17T13:11:56.557Z,4.63
2023-05-17T13:14:53.460Z,4.88
2023-05-17T13:17:39.515Z,4.55
2023-05-17T13:20:10.561Z,4.57
2023-05-17T13:22:45.530Z,4.40
2023-05-17T13:25:14.432Z,4.20
2023-05-17T13:30:16.152Z,4.25
2023-05-17T13:32:44.783Z,4.50
2023-05-17T13:35:12.057Z,5.05
2023-05-17T13:37:39.832Z,4.63
2023-05-17T13:40:08.476Z,4.50
2023-05-17T13:42:36.757Z,4.80
2023-05-17T13:45:04.745Z,4.90
2023-05-17T13:47:32.856Z,4.90
2023-05-17T13:50:00.725Z,4.75
2023-05-17T13:52:28.301Z,4.30
2023-05-17T13:54:55.291Z,5.05
2023-05-17T13:57:22.390Z,4.63
2023-05-17T13:59:50.625Z,4.25
2023-05-17T14:02:17.902Z,3.92
2023-05-17T14:04:45.121Z,4.40
2023-05-17T14:07:12.686Z,4.50
2023-05-17T14:09:40.157Z,4.90
2023-05-17T14:12:08.118Z,4.88
2023-05-17T14:14:35.493Z,4.70
2023-05-17T14:17:02.826Z,4.93
2023-05-17T14:19:30.565Z,4.88
2023-05-17T14:21:58.056Z,4.93
2023-05-17T14:24:25.152Z,4.30
2023-05-17T14:26:52.590Z,4.72
2023-05-17T14:29:19.728Z,4.57
2023-05-17T14:31:46.862Z,4.85
2023-05-17T14:34:13.942Z,4.70
2023-05-17T14:36:41.463Z,4.57
2023-05-17T14:39:10.297Z,4.45
2023-05-17T14:41:39.585Z,4.47
2023-05-17T14:44:06.884Z,4.32
2023-05-17T14:46:34.481Z,4.07
2023-05-17T14:49:01.654Z,4.20
2023-05-17T14:51:29.461Z,4.50
2023-05-17T14:53:56.937Z,4.25
2023-05-17T14:56:25.618Z,4.30
2023-05-17T14:58:52.957Z,4.07
2023-05-17T15:01:19.939Z,4.60
2023-05-17T15:03:47.447Z,3.97
2023-05-17T15:06:14.512Z,4.15
2023-05-17T15:08:42.130Z,3.97
2023-05-17T15:11:09.634Z,3.90
2023-05-17T15:13:37.107Z,3.42
2023-05-17T15:16:04.627Z,3.45
2023-05-17T15:18:31.899Z,3.72
2023-05-17T15:20:59.105Z,3.53
2023-05-17T15:23:26.721Z,3.60
2023-05-17T15:25:54.705Z,3.53
2023-05-17T15:28:23.889Z,2.90
2023-05-17T15:31:02.636Z,2.78
2023-05-17T15:33:31.298Z,3.13
2023-05-17T15:35:58.955Z,2.53
2023-05-17T15:38:27.488Z,2.90
2023-05-17T15:41:04.181Z,2.67
2023-05-17T15:43:32.941Z,2.83
2023-05-17T15:46:01.430Z,2.58
2023-05-17T15:48:31.942Z,2.42
2023-05-17T15:53:27.329Z,2.50
2023-05-17T15:55:54.650Z,2.58
2023-05-17T15:58:24.490Z,2.90
2023-05-17T16:00:52.621Z,2.22
2023-05-17T16:03:19.876Z,1.83
2023-05-17T16:05:46.973Z,1.80
2023-05-17T16:08:14.428Z,1.83
2023-05-17T16:10:42.360Z,2.05
2023-05-17T16:13:09.380Z,1.90
2023-05-17T16:15:38.810Z,2.17
2023-05-17T16:18:06.946Z,1.70
2023-05-17T16:20:34.641Z,1.90
2023-05-17T16:23:01.784Z,1.83
2023-05-17T16:25:29.148Z,1.83
2023-05-17T16:27:57.221Z,2.08
2023-05-17T16:30:24.624Z,1.88
2023-05-17T16:32:53.702Z,1.90
2023-05-17T16:35:23.828Z,2.00
2023-05-17T16:37:51.689Z,1.90
2023-05-17T16:40:19.000Z,1.60
2023-05-17T16:42:46.749Z,1.55
2023-05-17T16:45:14.647Z,2.20
2023-05-17T16:47:42.014Z,1.73
2023-05-17T16:50:10.760Z,1.60
2023-05-17T16:52:37.865Z,1.67
2023-05-17T16:55:05.690Z,1.85
2023-05-17T16:57:33.474Z,1.95
2023-05-17T17:00:01.109Z,1.77
2023-05-17T17:02:28.874Z,2.00
2023-05-17T17:04:55.966Z,1.88
2023-05-17T17:07:23.049Z,1.50
2023-05-17T17:09:50.415Z,1.85
2023-05-17T17:12:24.835Z,1.80
2023-05-17T17:14:53.920Z,2.15
2023-05-17T17:17:21.530Z,1.80
2023-05-17T17:19:48.643Z,1.73
2023-05-17T17:22:16.484Z,1.52
2023-05-17T17:24:44.753Z,1.67
2023-05-17T17:27:12.054Z,1.85
2023-05-17T17:29:39.100Z,1.63
2023-05-17T17:32:07.140Z,2.30
2023-05-17T17:34:34.570Z,1.50
2023-05-17T17:37:01.788Z,1.63
2023-05-17T17:39:29.120Z,1.95
2023-05-17T17:41:56.395Z,1.77
2023-05-17T17:44:23.906Z,1.80
2023-05-17T17:46:51.687Z,1.83
2023-05-17T17:49:19.472Z,1.90
2023-05-17T17:51:47.035Z,1.83
2023-05-17T17:54:14.524Z,1.80
2023-05-17T17:56:42.691Z,1.77
2023-05-17T17:59:09.873Z,1.90
2023-05-17T18:01:39.064Z,2.13
2023-05-17T18:04:06.386Z,1.98
2023-05-17T18:06:33.817Z,1.70
2023-05-17T18:09:00.908Z,1.60
2023-05-17T18:11:28.109Z,1.85
2023-05-17T18:13:55.998Z,1.80
2023-05-17T18:16:23.383Z,1.77
2023-05-17T18:18:50.590Z,2.05
2023-05-17T18:21:17.986Z,1.60
2023-05-17T18:23:45.152Z,1.67
2023-05-17T18:26:13.189Z,1.90
2023-05-17T18:28:42.748Z,1.70
2023-05-17T18:31:10.887Z,1.42
2023-05-17T18:33:38.943Z,1.90
2023-05-17T18:36:06.980Z,1.95
2023-05-17T18:38:35.596Z,1.88
2023-05-17T18:41:02.571Z,1.63
2023-05-17T18:43:31.508Z,1.88
2023-05-17T18:45:59.209Z,2.27
2023-05-17T18:48:28.039Z,2.03
2023-05-17T18:50:57.697Z,1.88
2023-05-17T18:53:24.950Z,2.07
2023-05-17T18:55:53.019Z,1.70
2023-05-17T18:58:20.329Z,2.13
2023-05-17T19:00:48.575Z,1.70
2023-05-17T19:03:16.359Z,2.10
2023-05-17T19:05:43.945Z,2.60
2023-05-17T19:08:11.037Z,1.70
2023-05-17T19:10:38.389Z,1.98
2023-05-17T19:13:06.760Z,2.30
2023-05-17T19:15:33.871Z,2.25
2023-05-17T19:18:01.397Z,2.30
2023-05-17T19:20:28.976Z,2.10
2023-05-17T19:22:56.670Z,2.47
2023-05-17T19:25:24.146Z,2.10
2023-05-17T19:27:51.534Z,1.75
2023-05-17T19:30:19.064Z,1.90
2023-05-17T19:32:46.498Z,2.05
2023-05-17T19:35:13.711Z,1.95
2023-05-17T19:37:41.024Z,2.65
2023-05-17T19:40:09.010Z,2.35
2023-05-17T19:42:36.209Z,2.30
2023-05-17T19:45:03.640Z,2.00
2023-05-17T19:47:31.902Z,2.10
2023-05-17T19:49:58.906Z,2.67
2023-05-17T19:52:26.071Z,2.67
2023-05-17T19:54:53.122Z,2.30
2023-05-17T19:57:20.398Z,2.45
2023-05-17T19:59:47.396Z,3.00
2023-05-17T20:02:15.108Z,2.67
2023-05-17T20:04:42.247Z,2.53
2023-05-17T20:07:09.384Z,2.47
2023-05-17T20:09:38.162Z,2.72
2023-05-17T20:12:09.682Z,2.40
2023-05-17T20:14:38.000Z,2.60
2023-05-17T20:17:05.168Z,2.58
2023-05-17T20:19:32.885Z,2.80
2023-05-17T20:22:01.729Z,2.70
2023-05-17T20:24:29.416Z,2.55
2023-05-17T20:26:57.626Z,2.28
2023-05-17T20:29:25.033Z,2.50
2023-05-17T20:31:52.234Z,2.05
2023-05-17T20:34:19.671Z,2.58
2023-05-17T20:36:47.311Z,3.05
2023-05-17T20:39:15.409Z,2.47
2023-05-17T20:41:42.792Z,2.20
2023-05-17T20:44:10.440Z,2.28
2023-05-17T20:46:38.748Z,2.63
2023-05-17T20:49:09.975Z,2.65
2023-05-17T20:51:37.488Z,2.90
2023-05-17T20:54:07.002Z,2.70
2023-05-17T20:56:35.174Z,2.23
2023-05-17T20:59:02.342Z,2.50
2023-05-17T21:01:29.748Z,2.40
2023-05-17T21:03:58.423Z,2.50
2023-05-17T21:06:27.357Z,2.13
2023-05-17T21:08:55.300Z,2.47
2023-05-17T21:11:23.266Z,2.17
2023-05-17T21:13:50.768Z,2.17
2023-05-17T21:16:18.364Z,2.65
2023-05-17T21:18:46.017Z,2.25
2023-05-17T21:21:13.419Z,2.50
2023-05-17T21:23:40.926Z,2.42
2023-05-17T21:26:08.745Z,2.85
2023-05-17T21:28:36.029Z,2.67
2023-05-17T21:31:03.948Z,2.50
2023-05-17T21:33:32.425Z,2.40
2023-05-17T21:35:59.637Z,2.67
2023-05-17T21:38:27.298Z,2.35
2023-05-17T21:40:55.871Z,2.67
2023-05-17T21:43:23.133Z,2.45
2023-05-17T21:45:50.290Z,2.80
2023-05-17T21:48:17.689Z,2.47
2023-05-17T21:50:45.540Z,2.70
2023-05-17T21:53:13.845Z,3.00
2023-05-17T21:55:56.409Z,2.78
2023-05-17T21:58:28.216Z,2.40
2023-05-17T22:00:57.274Z,2.50
2023-05-17T22:03:24.574Z,2.30
2023-05-17T22:05:52.793Z,2.30
2023-05-17T22:08:20.626Z,2.88
2023-05-17T22:10:50.196Z,2.50
2023-05-17T22:13:18.544Z,2.30
2023-05-17T22:15:46.228Z,2.67
2023-05-17T22:18:13.925Z,2.58
2023-05-17T22:20:41.195Z,2.75
2023-05-17T22:23:08.961Z,2.30
2023-05-17T22:25:36.225Z,2.50
2023-05-17T22:28:03.826Z,2.30
2023-05-17T22:30:31.427Z,2.05
2023-05-17T22:32:59.063Z,2.40
2023-05-17T22:35:26.832Z,2.63
2023-05-17T22:37:53.986Z,2.00
2023-05-17T22:40:21.973Z,1.92
2023-05-17T22:42:51.549Z,2.03
2023-05-17T22:45:19.028Z,2.00
2023-05-17T22:47:47.076Z,1.92
2023-05-17T22:50:15.937Z,2.08
2023-05-17T22:52:43.602Z,2.05
2023-05-17T22:55:11.410Z,1.83
2023-05-17T22:57:38.902Z,2.10
2023-05-17T23:00:09.610Z,2.20
2023-05-17T23:02:36.961Z,2.38
2023-05-17T23:05:04.937Z,2.35
2023-05-17T23:07:37.308Z,1.98
2023-05-17T23:10:08.839Z,2.40
2023-05-17T23:12:37.267Z,2.05
2023-05-17T23:15:06.165Z,2.20
2023-05-17T23:17:35.703Z,2.20
2023-05-17T23:20:13.177Z,2.38
2023-05-17T23:22:40.783Z,2.25
2023-05-17T23:25:08.749Z,2.25
2023-05-17T23:27:36.575Z,2.45
2023-05-17T23:30:04.737Z,2.13
2023-05-17T23:32:32.688Z,2.03
2023-05-17T23:35:03.696Z,2.03
2023-05-17T23:37:33.715Z,1.42
2023-05-17T23:40:01.198Z,2.63
2023-05-17T23:42:32.024Z,2.00
2023-05-17T23:45:00.819Z,1.98
2023-05-17T23:47:28.373Z,2.20
2023-05-17T23:49:56.094Z,1.90
2023-05-17T23:52:24.623Z,2.30
2023-05-17T23:54:52.316Z,1.80
2023-05-17T23:57:19.460Z,2.38
2023-05-17T23:59:46.781Z,1.92
